Time;durP1;ratioP1;P1;durP2;ratioP2;P2;SDS_P1;SDS_P2;PMS_P1;PMS_P2;Temp;Humidity;BMP_temperature;BMP_pressure;BME280_temperature;BME280_humidity;BME280_pressure;Samples;Min_cycle;Max_cycle;Signal;HPM_P1;HPM_P2
2021/06/08 00:01:07;;;;;;;6.20;1.38;;;;;;;17.00;54.91;101483.41;4897751;29;20044;-75
2021/06/08 00:03:34;;;;;;;6.88;1.50;;;;;;;16.96;54.89;101476.97;4905669;29;20047;-74
2021/06/08 00:06:00;;;;;;;3.38;1.08;;;;;;;16.83;55.10;101484.72;4897806;29;20127;-74
2021/06/08 00:08:27;;;;;;;8.85;1.27;;;;;;;16.76;55.23;101472.59;4881607;29;20395;-75
2021/06/08 00:10:54;;;;;;;4.35;1.30;;;;;;;16.67;55.44;101469.19;4909801;29;20036;-76
2021/06/08 00:13:20;;;;;;;5.97;1.25;;;;;;;16.57;55.95;101478.19;4899616;29;20040;-75
2021/06/08 00:15:47;;;;;;;4.35;1.40;;;;;;;16.51;55.85;101476.81;4897969;29;20038;-75
2021/06/08 00:18:14;;;;;;;6.18;1.85;;;;;;;16.48;56.30;101478.34;4898767;29;20045;-75
2021/06/08 00:20:41;;;;;;;6.15;1.63;;;;;;;16.49;56.18;101468.81;4897924;29;20037;-74
2021/06/08 00:23:08;;;;;;;7.05;2.50;;;;;;;16.49;56.13;101470.78;4899228;29;20504;-74
2021/06/08 00:25:35;;;;;;;2.20;1.02;;;;;;;16.50;56.22;101470.41;4897346;29;20485;-75
2021/06/08 00:28:04;;;;;;;4.68;1.75;;;;;;;16.45;56.46;101467.91;4905496;29;20052;-75
2021/06/08 00:30:31;;;;;;;2.45;1.25;;;;;;;16.47;56.47;101464.75;4897622;29;20396;-76
2021/06/08 00:32:58;;;;;;;3.55;1.48;;;;;;;16.36;56.79;101456.94;4896248;29;20041;-74
2021/06/08 00:35:27;;;;;;;2.38;1.08;;;;;;;16.30;56.97;101461.22;4896865;29;20057;-75
2021/06/08 00:37:54;;;;;;;8.13;2.40;;;;;;;16.28;57.22;101457.97;4883683;29;20131;-75
2021/06/08 00:40:21;;;;;;;3.38;1.30;;;;;;;16.23;57.25;101471.44;4897290;29;20415;-75
2021/06/08 00:42:48;;;;;;;3.25;1.20;;;;;;;16.18;57.49;101464.13;4897190;29;20488;-75
2021/06/08 00:45:16;;;;;;;4.53;1.75;;;;;;;16.09;57.95;101466.34;4907999;29;20068;-75
2021/06/08 00:47:42;;;;;;;3.70;1.10;;;;;;;16.04;58.08;101461.03;4896975;29;20057;-74
2021/06/08 00:50:10;;;;;;;7.43;2.30;;;;;;;16.06;58.12;101467.06;4897605;29;20051;-75
2021/06/08 00:52:37;;;;;;;8.35;1.63;;;;;;;16.15;58.20;101469.66;4897147;29;20048;-74
2021/06/08 00:55:04;;;;;;;2.97;1.35;;;;;;;16.12;58.18;101465.63;4896090;29;20132;-74
2021/06/08 00:57:31;;;;;;;4.03;1.75;;;;;;;16.11;58.42;101475.16;4897600;29;20084;-75
2021/06/08 00:59:58;;;;;;;5.72;1.10;;;;;;;16.11;58.38;101465.97;4897027;29;20068;-74
2021/06/08 01:02:25;;;;;;;4.47;1.30;;;;;;;16.07;58.78;101468.66;4901688;29;20115;-76
2021/06/08 01:04:52;;;;;;;5.80;1.58;;;;;;;16.05;58.96;101471.03;4899479;29;20044;-75
2021/06/08 01:07:18;;;;;;;8.18;2.92;;;;;;;16.00;59.03;101479.69;4896993;29;20044;-75
2021/06/08 01:09:45;;;;;;;5.93;1.58;;;;;;;16.03;59.20;101470.59;4896963;29;20127;-75
2021/06/08 01:12:12;;;;;;;5.22;1.70;;;;;;;16.00;59.38;101474.09;4896806;29;20045;-74
2021/06/08 01:14:39;;;;;;;9.15;2.10;;;;;;;16.02;59.55;101470.97;4897470;29;20467;-74
2021/06/08 01:17:06;;;;;;;3.70;1.67;;;;;;;16.02;59.45;101471.75;4896592;29;20050;-75
2021/06/08 01:19:32;;;;;;;4.88;1.67;;;;;;;15.99;59.82;101478.06;4901501;29;20128;-75
2021/06/08 01:22:00;;;;;;;5.60;1.30;;;;;;;15.99;59.96;101472.47;4898825;29;20044;-75
2021/06/08 01:24:26;;;;;;;3.38;1.10;;;;;;;16.05;59.60;101481.38;4879541;29;20075;-76
2021/06/08 01:26:54;;;;;;;4.60;1.63;;;;;;;16.09;59.79;101477.50;4896397;29;20104;-75
2021/06/08 01:29:22;;;;;;;2.47;1.42;;;;;;;16.11;60.09;101475.16;4896967;29;20045;-75
2021/06/08 01:31:49;;;;;;;2.65;1.48;;;;;;;16.12;59.88;101479.59;4896848;29;20123;-75
2021/06/08 01:34:16;;;;;;;2.63;1.08;;;;;;;16.18;60.12;101475.31;4896461;29;20064;-76
2021/06/08 01:36:45;;;;;;;7.60;2.47;;;;;;;16.25;59.59;101475.47;4896582;29;20037;-75
2021/06/08 01:39:12;;;;;;;4.18;1.40;;;;;;;16.21;59.94;101480.16;4895975;29;20059;-75
2021/06/08 01:41:38;;;;;;;4.90;1.50;;;;;;;16.20;60.17;101481.34;4885725;29;20049;-74
2021/06/08 01:44:06;;;;;;;3.97;1.23;;;;;;;16.20;60.34;101478.53;4896102;29;20072;-74
2021/06/08 01:46:33;;;;;;;5.30;1.20;;;;;;;16.18;60.64;101482.88;4896505;29;20039;-76
2021/06/08 01:49:00;;;;;;;3.40;1.33;;;;;;;16.22;60.19;101483.78;4896031;29;20163;-75
2021/06/08 01:51:41;;;;;;;9.07;1.27;;;;;;;16.24;60.80;101478.63;4896457;29;20477;-76
2021/06/08 01:54:28;;;;;;;3.47;1.30;;;;;;;16.29;60.75;101473.56;4895538;29;20063;-74
2021/06/08 01:57:06;;;;;;;5.13;2.20;;;;;;;16.32;60.80;101481.22;4896360;29;20062;-76
2021/06/08 01:59:49;;;;;;;2.05;1.48;;;;;;;16.35;60.76;101483.28;4896166;29;20127;-75
2021/06/08 02:02:24;;;;;;;6.78;1.42;;;;;;;16.37;60.83;101474.53;4898532;29;20040;-75
2021/06/08 02:05:42;;;;;;;5.20;1.85;;;;;;;16.32;61.23;101472.84;4907702;29;20127;-75
2021/06/08 02:08:09;;;;;;;3.90;1.13;;;;;;;16.30;60.74;101483.56;4856673;29;20526;-75
2021/06/08 02:10:35;;;;;;;3.38;0.82;;;;;;;16.27;61.12;101481.50;4900018;29;20064;-75
2021/06/08 02:13:28;;;;;;;3.97;1.58;;;;;;;16.19;61.98;101490.91;4901651;29;20049;-75
2021/06/08 02:16:13;;;;;;;1.92;1.27;;;;;;;16.14;61.87;101485.59;4896316;29;20051;-75
2021/06/08 02:18:45;;;;;;;4.43;1.25;;;;;;;16.19;61.39;101499.28;4863810;29;20510;-74
2021/06/08 02:21:15;;;;;;;5.35;1.35;;;;;;;16.20;61.71;101491.72;4906500;29;20041;-75
2021/06/08 02:23:45;;;;;;;3.65;1.30;;;;;;;16.21;61.80;101482.97;4897595;29;20051;-75
2021/06/08 02:26:12;;;;;;;6.30;1.20;;;;;;;16.20;61.88;101492.50;4896091;29;20057;-75
2021/06/08 02:28:39;;;;;;;4.80;2.35;;;;;;;16.22;61.96;101492.97;4895844;29;20556;-75
2021/06/08 02:31:08;;;;;;;2.47;1.80;;;;;;;16.20;62.19;101494.50;4895713;29;20045;-75
2021/06/08 02:33:36;;;;;;;2.85;1.35;;;;;;;16.17;62.35;101481.28;4895928;29;20045;-75
2021/06/08 02:36:05;;;;;;;2.28;1.58;;;;;;;16.17;62.39;101490.47;4897645;29;20051;-75
2021/06/08 02:38:34;;;;;;;3.95;1.25;;;;;;;16.13;62.49;101486.78;4903555;29;20050;-75
2021/06/08 02:41:04;;;;;;;2.90;1.48;;;;;;;16.08;62.84;101477.88;4878713;29;20049;-75
2021/06/08 02:43:32;;;;;;;17.42;3.33;;;;;;;16.02;63.17;101482.91;4895693;29;20222;-75
2021/06/08 02:46:00;;;;;;;6.75;1.40;;;;;;;15.98;63.34;101481.22;4894825;29;20587;-75
2021/06/08 02:48:28;;;;;;;5.07;2.33;;;;;;;15.97;63.53;101476.81;4895932;29;20139;-76
2021/06/08 02:50:57;;;;;;;2.53;1.52;;;;;;;15.91;63.76;101486.66;4893273;29;20047;-75
2021/06/08 02:53:25;;;;;;;5.57;1.42;;;;;;;15.86;64.12;101482.13;4893684;29;20068;-75
2021/06/08 02:55:53;;;;;;;4.43;1.70;;;;;;;15.88;64.14;101488.19;4896982;29;20509;-75
2021/06/08 02:58:21;;;;;;;3.03;1.35;;;;;;;15.91;64.20;101481.88;4894196;29;20413;-74
2021/06/08 03:00:48;;;;;;;2.42;1.58;;;;;;;15.95;64.08;101482.75;4899225;29;20044;-74
2021/06/08 03:03:19;;;;;;;4.15;1.55;;;;;;;15.98;64.29;101484.03;4904953;29;20044;-75
2021/06/08 03:05:54;;;;;;;4.60;1.63;;;;;;;16.01;64.43;101486.91;4907868;29;20040;-74
2021/06/08 03:08:31;;;;;;;5.93;1.85;;;;;;;16.01;64.44;101489.69;4895101;29;20396;-75
2021/06/08 03:11:02;;;;;;;3.20;1.70;;;;;;;16.03;64.46;101483.72;4906012;29;20567;-74
2021/06/08 03:13:32;;;;;;;4.25;1.60;;;;;;;16.05;64.21;101493.38;4902584;29;20104;-74
2021/06/08 03:16:01;;;;;;;4.13;1.90;;;;;;;16.02;64.43;101485.72;4899060;29;20044;-74
2021/06/08 03:18:31;;;;;;;2.40;1.50;;;;;;;15.98;64.81;101482.03;4898398;29;20051;-75
2021/06/08 03:21:02;;;;;;;4.72;2.35;;;;;;;15.95;64.85;101491.16;4910623;29;20036;-75
2021/06/08 03:23:34;;;;;;;2.03;1.50;;;;;;;15.96;65.60;101491.97;4900609;29;20111;-74
2021/06/08 03:26:04;;;;;;;3.13;1.60;;;;;;;15.94;65.06;101486.72;4898741;29;20045;-75
2021/06/08 03:28:33;;;;;;;3.33;1.63;;;;;;;15.97;65.07;101499.16;4882070;29;20037;-75
2021/06/08 03:31:00;;;;;;;4.10;1.13;;;;;;;15.94;65.16;101497.09;4898477;29;20037;-74
2021/06/08 03:33:30;;;;;;;3.47;1.42;;;;;;;15.92;65.37;101493.84;4898622;29;20040;-75
2021/06/08 03:35:58;;;;;;;1.95;1.17;;;;;;;15.87;65.34;101486.56;4899980;29;20056;-75
2021/06/08 03:38:27;;;;;;;3.70;1.83;;;;;;;15.86;65.43;101496.09;4907016;29;20072;-75
2021/06/08 03:40:55;;;;;;;3.35;1.70;;;;;;;15.87;65.35;101497.72;4885386;29;20123;-74
2021/06/08 03:43:23;;;;;;;4.30;1.90;;;;;;;15.84;65.94;101492.88;4898502;29;20044;-75
2021/06/08 03:45:50;;;;;;;2.15;1.70;;;;;;;15.81;66.09;101493.59;4898072;29;20044;-74
2021/06/08 03:48:18;;;;;;;5.57;1.50;;;;;;;15.83;66.36;101494.06;4898135;29;20504;-75
2021/06/08 03:50:48;;;;;;;5.13;1.83;;;;;;;15.79;66.27;101493.16;4898095;29;20449;-75
2021/06/08 03:53:18;;;;;;;3.53;1.58;;;;;;;15.79;66.57;101495.94;4898033;29;20504;-75
2021/06/08 03:55:48;;;;;;;4.30;1.75;;;;;;;15.82;66.44;101495.22;4898108;29;20057;-75
2021/06/08 03:58:18;;;;;;;2.20;1.70;;;;;;;15.69;67.05;101491.72;4897965;29;20053;-74
2021/06/08 04:00:53;;;;;;;7.65;2.65;;;;;;;15.68;67.38;101494.88;4898360;29;20044;-74
2021/06/08 04:03:20;;;;;;;4.65;1.85;;;;;;;15.63;67.19;101495.97;4901847;29;20054;-75
2021/06/08 04:05:47;;;;;;;2.75;1.23;;;;;;;15.66;67.26;101497.22;4905589;29;20036;-74
2021/06/08 04:08:14;;;;;;;5.72;2.13;;;;;;;15.66;67.48;101495.25;4902430;29;20128;-74
2021/06/08 04:10:41;;;;;;;4.72;1.80;;;;;;;15.69;67.26;101479.75;4901819;29;20040;-76
2021/06/08 04:13:08;;;;;;;3.50;1.20;;;;;;;15.68;67.65;101484.50;4904846;29;20441;-74
2021/06/08 04:15:35;;;;;;;3.05;1.55;;;;;;;15.71;67.32;101477.41;4897504;29;20055;-74
2021/06/08 04:18:03;;;;;;;4.00;1.45;;;;;;;15.69;67.66;101488.13;4897960;29;20084;-74
2021/06/08 04:20:31;;;;;;;3.28;1.98;;;;;;;15.71;67.95;101480.19;4904086;29;20059;-75
2021/06/08 04:22:59;;;;;;;5.13;1.42;;;;;;;15.69;67.97;101479.75;4899621;29;20552;-74
2021/06/08 04:25:26;;;;;;;1.63;1.27;;;;;;;15.66;68.09;101480.47;4881077;29;20465;-75
2021/06/08 04:27:54;;;;;;;1.40;1.30;;;;;;;15.69;68.02;101474.16;4897658;29;20049;-74
2021/06/08 04:30:21;;;;;;;2.80;1.38;;;;;;;15.73;68.14;101480.63;4897311;29;20076;-75
2021/06/08 04:32:49;;;;;;;4.53;1.50;;;;;;;15.76;67.93;101491.06;4897624;29;20040;-75
2021/06/08 04:35:18;;;;;;;6.13;1.27;;;;;;;15.85;68.03;101488.91;4896446;29;20048;-75
2021/06/08 04:37:46;;;;;;;5.35;1.70;;;;;;;15.81;67.95;101496.38;4907514;29;20071;-75
2021/06/08 04:40:16;;;;;;;4.68;1.75;;;;;;;15.73;67.86;101481.44;4880113;29;20049;-74
2021/06/08 04:42:45;;;;;;;5.50;1.95;;;;;;;15.72;67.76;101485.44;4897524;29;20510;-75
2021/06/08 04:45:14;;;;;;;5.10;1.50;;;;;;;15.73;67.76;101475.88;4896892;29;20068;-75
2021/06/08 04:47:41;;;;;;;6.88;1.80;;;;;;;15.70;67.65;101479.38;4897656;29;20112;-75
2021/06/08 04:50:11;;;;;;;11.82;3.80;;;;;;;15.66;67.80;101472.09;4895803;29;20064;-75
2021/06/08 04:52:38;;;;;;;4.35;1.85;;;;;;;15.63;67.70;101475.59;4897410;29;20052;-75
2021/06/08 04:55:07;;;;;;;4.45;1.67;;;;;;;15.59;67.86;101467.16;4896785;29;20459;-74
2021/06/08 04:57:35;;;;;;;4.50;2.10;;;;;;;15.62;67.83;101490.75;4897390;29;20120;-75
2021/06/08 05:00:06;;;;;;;6.75;2.50;;;;;;;15.65;67.90;101484.41;4895952;29;20059;-75
2021/06/08 05:02:47;;;;;;;6.05;1.88;;;;;;;15.57;68.61;101477.03;4898645;29;20139;-76
2021/06/08 05:05:24;;;;;;;11.63;2.38;;;;;;;15.56;68.56;101489.41;4887570;29;20100;-75
2021/06/08 05:07:57;;;;;;;5.13;2.88;;;;;;;15.53;68.71;101487.31;4900636;29;20041;-74
2021/06/08 05:10:27;;;;;;;23.20;3.70;;;;;;;15.49;68.76;101480.84;4880228;29;20131;-74
2021/06/08 05:12:55;;;;;;;5.20;2.13;;;;;;;15.44;68.95;101484.66;4905455;29;20104;-74
2021/06/08 05:15:25;;;;;;;5.78;2.45;;;;;;;15.46;69.03;101487.16;4896932;29;20044;-74
2021/06/08 05:17:55;;;;;;;7.03;2.70;;;;;;;15.45;69.25;101488.28;4894839;29;20037;-75
2021/06/08 05:20:23;;;;;;;8.13;3.38;;;;;;;15.40;69.57;101488.56;4906928;29;20043;-74
2021/06/08 05:22:53;;;;;;;5.97;2.50;;;;;;;15.38;69.69;101479.72;4897885;29;20048;-75
2021/06/08 05:25:21;;;;;;;9.45;3.28;;;;;;;15.37;69.98;101489.25;4896880;29;20048;-75
2021/06/08 05:27:48;;;;;;;10.25;2.42;;;;;;;15.32;70.10;101481.16;4896215;29;20049;-75
2021/06/08 05:30:17;;;;;;;5.10;3.20;;;;;;;15.30;70.41;101484.31;4896942;29;20044;-75
2021/06/08 05:32:45;;;;;;;8.90;2.90;;;;;;;15.27;70.59;101491.41;4882479;29;20044;-74
2021/06/08 05:35:12;;;;;;;9.77;3.55;;;;;;;15.25;70.61;101482.59;4897863;29;20142;-74
2021/06/08 05:37:41;;;;;;;9.07;2.25;;;;;;;15.25;70.84;101488.19;4902451;29;20135;-74
2021/06/08 05:40:14;;;;;;;7.47;2.38;;;;;;;15.25;70.99;101499.34;4897035;29;20036;-75
2021/06/08 05:42:40;;;;;;;9.68;2.67;;;;;;;15.30;71.08;101497.47;4896226;29;20157;-74
2021/06/08 05:45:07;;;;;;;11.40;2.28;;;;;;;15.34;70.91;101496.38;4896734;29;20062;-75
2021/06/08 05:47:35;;;;;;;5.22;2.10;;;;;;;15.37;70.96;101500.44;4896611;29;20123;-74
2021/06/08 05:50:03;;;;;;;5.93;2.22;;;;;;;15.38;70.95;101504.84;4896347;29;20049;-75
2021/06/08 05:52:31;;;;;;;6.57;2.65;;;;;;;15.39;71.16;101492.50;4896825;29;20056;-75
2021/06/08 05:55:00;;;;;;;7.20;2.67;;;;;;;15.40;71.16;101489.38;4896073;29;20433;-75
2021/06/08 05:57:27;;;;;;;5.22;2.70;;;;;;;15.40;71.18;101488.56;4896442;29;20040;-74
2021/06/08 05:59:55;;;;;;;6.72;2.35;;;;;;;15.40;71.20;101494.94;4895742;29;20408;-75
2021/06/08 06:02:22;;;;;;;4.85;2.58;;;;;;;15.39;71.47;101503.66;4896876;29;20096;-75
2021/06/08 06:04:50;;;;;;;9.55;2.50;;;;;;;15.39;71.60;101496.09;4904129;29;20044;-75
2021/06/08 06:07:17;;;;;;;3.72;2.45;;;;;;;15.44;71.70;101500.59;4883818;29;20409;-75
2021/06/08 06:09:44;;;;;;;6.78;2.83;;;;;;;15.40;71.75;101494.94;4895767;29;20079;-74
2021/06/08 06:12:12;;;;;;;5.25;2.33;;;;;;;15.36;72.08;101498.78;4905243;29;20168;-74
2021/06/08 06:14:40;;;;;;;7.57;2.75;;;;;;;15.29;72.19;101499.44;4896160;29;20072;-74
2021/06/08 06:17:08;;;;;;;6.63;2.55;;;;;;;15.24;72.37;101503.31;4895801;29;20478;-74
2021/06/08 06:19:35;;;;;;;7.20;2.25;;;;;;;15.27;72.49;101508.16;4900960;29;20448;-75
2021/06/08 06:22:02;;;;;;;11.38;3.88;;;;;;;15.29;72.50;101504.19;4901259;29;20048;-75
2021/06/08 06:24:32;;;;;;;7.05;2.70;;;;;;;15.35;72.37;101505.56;4896283;29;20766;-75
2021/06/08 06:26:59;;;;;;;5.50;2.92;;;;;;;15.40;72.58;101505.28;4895840;29;20048;-75
2021/06/08 06:29:26;;;;;;;8.88;2.67;;;;;;;15.45;72.58;101514.22;4895675;29;20072;-75
2021/06/08 06:31:56;;;;;;;3.50;1.70;;;;;;;15.54;72.49;101517.66;4898930;29;20429;-74
2021/06/08 06:34:25;;;;;;;5.43;2.08;;;;;;;15.61;72.29;101511.44;4900119;29;20068;-75
2021/06/08 06:36:55;;;;;;;6.80;2.08;;;;;;;15.67;72.40;101510.81;4905958;29;20051;-74
2021/06/08 06:39:26;;;;;;;8.05;2.30;;;;;;;15.71;72.22;101511.72;4899511;29;20063;-75
2021/06/08 06:41:56;;;;;;;4.67;2.13;;;;;;;15.79;72.17;101507.09;4899309;29;20088;-75
2021/06/08 06:44:25;;;;;;;6.85;2.00;;;;;;;15.90;72.18;101508.19;4883387;29;20295;-75
2021/06/08 06:46:52;;;;;;;7.40;3.00;;;;;;;15.98;72.17;101500.78;4899498;29;20062;-74
2021/06/08 06:49:21;;;;;;;3.63;2.70;;;;;;;16.02;72.19;101498.91;4891587;29;20768;-75
2021/06/08 06:51:48;;;;;;;2.13;1.92;;;;;;;16.09;71.68;101499.03;4899800;29;20119;-76
2021/06/08 06:54:15;;;;;;;6.80;2.15;;;;;;;16.15;71.94;101492.78;4898403;29;20127;-75
2021/06/08 06:56:44;;;;;;;6.55;2.15;;;;;;;16.28;71.71;101505.47;4898976;29;20485;-75
2021/06/08 06:59:11;;;;;;;5.65;1.85;;;;;;;16.34;71.47;101495.63;4899534;29;20060;-75
2021/06/08 07:01:42;;;;;;;6.13;2.28;;;;;;;16.38;71.27;101495.72;4899052;29;20049;-75
2021/06/08 07:04:10;;;;;;;4.95;1.98;;;;;;;16.47;71.30;101487.13;4904023;29;20045;-74
2021/06/08 07:06:40;;;;;;;4.85;1.98;;;;;;;16.54;71.30;101490.09;4905301;29;20088;-74
2021/06/08 07:09:08;;;;;;;4.03;1.30;;;;;;;16.60;70.79;101497.00;4897815;29;20485;-75
2021/06/08 07:11:36;;;;;;;3.45;1.55;;;;;;;16.65;70.46;101493.91;4902364;29;20107;-75
2021/06/08 07:14:03;;;;;;;4.03;2.15;;;;;;;16.72;70.19;101499.66;4887060;29;20076;-74
2021/06/08 07:16:30;;;;;;;7.70;2.65;;;;;;;16.74;70.24;101497.28;4899208;29;20043;-75
2021/06/08 07:18:57;;;;;;;7.20;2.20;;;;;;;16.78;70.26;101498.19;4898953;29;20056;-74
2021/06/08 07:21:24;;;;;;;6.18;2.08;;;;;;;16.84;70.21;101502.28;4907612;29;20093;-75
2021/06/08 07:23:55;;;;;;;4.65;2.63;;;;;;;16.93;70.17;101500.06;4900696;29;20060;-75
2021/06/08 07:26:23;;;;;;;5.20;1.98;;;;;;;17.02;70.46;101498.66;4897528;29;20485;-75
2021/06/08 07:28:54;;;;;;;5.43;2.30;;;;;;;17.05;70.48;101494.28;4890735;29;20049;-74
2021/06/08 07:31:41;;;;;;;3.55;2.50;;;;;;;17.24;70.10;101499.88;4895825;29;20100;-75
2021/06/08 07:34:20;;;;;;;3.25;2.03;;;;;;;17.39;69.98;101498.16;4893820;29;20044;-74
2021/06/08 07:36:47;;;;;;;3.40;2.00;;;;;;;17.46;69.77;101501.06;4899766;29;20040;-74
2021/06/08 07:39:36;;;;;;;5.45;1.90;;;;;;;17.58;69.16;101498.91;4898276;29;20044;-74
2021/06/08 07:42:10;;;;;;;2.67;1.80;;;;;;;17.66;69.25;101493.44;4888061;29;20131;-74
2021/06/08 07:44:45;;;;;;;8.38;1.85;;;;;;;17.76;68.73;101496.41;4893933;29;20131;-75
2021/06/08 07:47:17;;;;;;;7.30;1.95;;;;;;;17.80;68.61;101502.03;4879436;29;20049;-74
2021/06/08 07:49:48;;;;;;;2.67;1.80;;;;;;;17.82;68.49;101502.50;4895055;29;20040;-75
2021/06/08 07:52:18;;;;;;;6.27;1.83;;;;;;;17.86;68.40;101503.34;4884792;29;20123;-74
2021/06/08 07:54:49;;;;;;;3.38;1.52;;;;;;;17.92;68.21;101502.66;4895047;29;20303;-74
2021/06/08 07:57:18;;;;;;;3.30;1.67;;;;;;;18.03;68.08;101497.22;4892684;29;20473;-75
2021/06/08 07:59:48;;;;;;;3.92;1.88;;;;;;;18.12;67.90;101497.75;4881717;29;20469;-74
2021/06/08 08:02:24;;;;;;;8.68;3.40;;;;;;;18.19;67.38;101495.84;4896764;29;20127;-74
2021/06/08 08:04:52;;;;;;;2.42;2.08;;;;;;;18.29;67.47;101497.22;4901988;29;20134;-75
2021/06/08 08:07:26;;;;;;;3.75;2.33;;;;;;;18.44;67.05;101492.59;4895401;29;20082;-75
2021/06/08 08:09:53;;;;;;;4.50;1.83;;;;;;;18.57;67.05;101488.38;4889531;29;20044;-74
2021/06/08 08:12:22;;;;;;;6.93;2.08;;;;;;;18.68;66.61;101487.34;4859077;29;20813;-75
2021/06/08 08:14:52;;;;;;;3.30;1.85;;;;;;;18.66;66.61;101497.31;4862856;29;20501;-75
2021/06/08 08:17:23;;;;;;;5.13;2.25;;;;;;;18.60;66.04;101488.44;4893925;29;20051;-75
2021/06/08 08:19:53;;;;;;;5.68;2.08;;;;;;;18.66;66.32;101495.34;4884416;29;20056;-75
2021/06/08 08:22:20;;;;;;;5.03;2.38;;;;;;;18.62;66.40;101491.66;4881248;29;20132;-75
2021/06/08 08:24:49;;;;;;;8.80;4.68;;;;;;;18.64;66.39;101489.28;4877109;29;20046;-75
2021/06/08 08:27:16;;;;;;;5.28;2.10;;;;;;;18.73;66.19;101488.97;4893871;29;20104;-75
2021/06/08 08:29:45;;;;;;;7.40;2.47;;;;;;;18.80;66.14;101487.06;4894895;29;20067;-75
2021/06/08 08:32:14;;;;;;;4.88;2.38;;;;;;;18.79;65.74;101484.66;4893013;29;20393;-75
2021/06/08 08:34:44;;;;;;;7.90;2.38;;;;;;;18.93;65.74;101486.81;4884146;29;20076;-74
2021/06/08 08:37:11;;;;;;;8.82;3.38;;;;;;;19.16;65.69;101491.09;4902399;29;20139;-75
2021/06/08 08:39:38;;;;;;;7.47;2.78;;;;;;;19.35;65.57;101490.84;4891856;29;20045;-75
2021/06/08 08:42:06;;;;;;;3.67;2.47;;;;;;;19.46;65.39;101484.59;4891159;29;20056;-75
2021/06/08 08:44:33;;;;;;;9.20;2.63;;;;;;;19.57;64.84;101475.03;4893950;29;20056;-75
2021/06/08 08:47:02;;;;;;;8.07;2.65;;;;;;;19.75;64.49;101484.41;4894458;29;20036;-76
2021/06/08 08:49:29;;;;;;;7.32;2.58;;;;;;;19.87;64.19;101480.50;4893462;29;20086;-76
2021/06/08 08:51:56;;;;;;;5.32;2.05;;;;;;;20.00;63.41;101479.78;4894313;29;20051;-76
2021/06/08 08:54:23;;;;;;;7.22;1.92;;;;;;;20.11;63.21;101471.41;4892700;29;20068;-76
2021/06/08 08:56:50;;;;;;;5.38;2.28;;;;;;;20.25;62.79;101470.72;4893688;29;20057;-75
2021/06/08 08:59:19;;;;;;;6.85;1.83;;;;;;;20.27;62.14;101462.69;4885564;29;20149;-75
2021/06/08 09:01:48;;;;;;;4.22;2.20;;;;;;;20.16;62.22;101467.41;4890864;29;20052;-76
2021/06/08 09:04:15;;;;;;;7.75;2.33;;;;;;;20.29;62.04;101472.34;4893725;29;20055;-76
2021/06/08 09:06:41;;;;;;;6.75;2.58;;;;;;;20.27;61.92;101468.31;4892886;29;20049;-76
2021/06/08 09:09:10;;;;;;;7.05;2.30;;;;;;;20.18;61.53;101479.88;4892810;29;20040;-75
2021/06/08 09:11:41;;;;;;;5.88;1.70;;;;;;;20.15;61.10;101460.97;4874253;29;20429;-76
2021/06/08 09:14:11;;;;;;;0.77;0.70;;;;;;;20.19;60.00;101466.63;4888879;29;20072;-76
2021/06/08 09:16:39;;;;;;;2.88;0.50;;;;;;;20.12;58.92;101452.56;4875935;29;20092;-75
2021/06/08 09:19:10;;;;;;;0.47;0.32;;;;;;;19.94;56.81;101461.66;4890812;29;20063;-76
2021/06/08 09:21:39;;;;;;;1.35;0.73;;;;;;;19.92;57.97;101454.81;4885652;29;20667;-76
2021/06/08 09:24:22;;;;;;;0.70;0.63;;;;;;;19.94;56.81;101456.03;4892745;29;20049;-75
2021/06/08 09:26:53;;;;;;;1.20;0.60;;;;;;;20.01;56.86;101455.28;4891755;29;20040;-76
2021/06/08 09:29:38;;;;;;;0.60;0.30;;;;;;;20.53;56.37;101462.41;4882259;29;20469;-75
2021/06/08 09:32:24;;;;;;;0.30;0.30;;;;;;;21.03;54.20;101455.75;4888911;29;20132;-76
2021/06/08 09:34:54;;;;;;;1.48;0.50;;;;;;;21.64;54.93;101448.16;4890905;29;20163;-76
2021/06/08 09:37:41;;;;;;;0.82;0.40;;;;;;;22.48;52.97;101460.50;4898986;29;20051;-76
2021/06/08 09:40:20;;;;;;;3.75;1.42;;;;;;;22.98;53.46;101461.91;4892363;29;20080;-76
2021/06/08 09:42:50;;;;;;;7.82;1.95;;;;;;;23.12;54.29;101453.31;4893097;29;20044;-73
2021/06/08 09:45:23;;;;;;;4.30;2.40;;;;;;;23.07;53.36;101458.59;4892924;29;20048;-74
2021/06/08 09:48:00;;;;;;;4.60;1.80;;;;;;;22.67;53.95;101445.91;4876302;29;20049;-73
2021/06/08 09:50:38;;;;;;;4.00;1.20;;;;;;;22.27;53.99;101444.44;4893718;29;20564;-74
2021/06/08 09:53:29;;;;;;;5.30;1.40;;;;;;;22.10;54.84;101453.75;4892781;29;20043;-74
2021/06/08 09:56:15;;;;;;;6.13;1.48;;;;;;;22.02;54.88;101438.88;4890820;29;20694;-73
2021/06/08 09:58:47;;;;;;;5.20;1.42;;;;;;;22.23;55.13;101444.47;4892395;29;20048;-74
2021/06/08 10:01:17;;;;;;;4.10;1.52;;;;;;;22.37;55.11;101443.63;4892912;29;20863;-74
2021/06/08 10:03:56;;;;;;;7.13;1.80;;;;;;;22.36;54.56;101442.00;4884849;29;20059;-76
2021/06/08 10:06:44;;;;;;;3.63;1.45;;;;;;;22.47;54.87;101436.31;4871248;29;20076;-76
2021/06/08 10:09:12;;;;;;;2.92;1.30;;;;;;;22.61;54.64;101444.72;4889653;29;20056;-76
2021/06/08 10:11:41;;;;;;;3.83;1.80;;;;;;;22.64;54.45;101446.72;4894004;29;20044;-75
2021/06/08 10:14:08;;;;;;;2.42;1.00;;;;;;;22.65;54.41;101448.34;4892891;29;20457;-75
2021/06/08 10:16:35;;;;;;;3.53;1.40;;;;;;;22.52;54.07;101444.34;4894263;29;20388;-76
2021/06/08 10:19:03;;;;;;;5.50;1.35;;;;;;;22.29;54.41;101442.03;4875793;29;20063;-76
2021/06/08 10:21:48;;;;;;;3.28;1.40;;;;;;;22.30;54.32;101443.63;4886679;29;20405;-75
2021/06/08 10:24:16;;;;;;;6.07;1.80;;;;;;;22.28;54.40;101446.06;4891555;29;20048;-75
2021/06/08 10:26:50;;;;;;;5.40;1.70;;;;;;;22.19;54.66;101438.00;4892660;29;20782;-76
2021/06/08 10:29:20;;;;;;;2.67;0.98;;;;;;;22.15;54.25;101437.22;4892129;29;20048;-75
2021/06/08 10:31:48;;;;;;;2.05;0.40;;;;;;;22.11;53.61;101442.06;4892802;29;20448;-76
2021/06/08 10:34:33;;;;;;;1.50;0.30;;;;;;;22.11;53.00;101436.44;4890560;29;20135;-75
2021/06/08 10:37:01;;;;;;;0.93;0.20;;;;;;;22.14;52.28;101434.81;4891762;29;20049;-75
2021/06/08 10:39:29;;;;;;;0.70;0.20;;;;;;;22.09;51.52;101444.50;4891926;29;20045;-75
2021/06/08 10:41:58;;;;;;;3.80;0.70;;;;;;;21.84;51.56;101449.38;4891695;29;20127;-76
2021/06/08 10:44:28;;;;;;;6.63;2.25;;;;;;;21.57;52.89;101451.00;4892849;29;20079;-76
2021/06/08 10:46:57;;;;;;;7.57;3.00;;;;;;;21.39;54.40;101445.38;4892739;29;20099;-76
2021/06/08 10:49:38;;;;;;;6.43;2.13;;;;;;;21.41;54.84;101442.13;4891855;29;20041;-75
2021/06/08 10:52:11;;;;;;;6.70;1.70;;;;;;;21.36;55.08;101459.44;4892392;29;20048;-76
2021/06/08 10:54:48;;;;;;;6.63;2.55;;;;;;;21.13;55.80;101457.78;4892022;29;20064;-76
2021/06/08 10:57:17;;;;;;;3.95;1.52;;;;;;;20.98;55.95;101453.31;4892353;29;20049;-75
2021/06/08 10:59:52;;;;;;;5.10;1.40;;;;;;;20.86;56.51;101456.53;4892734;29;20127;-76
2021/06/08 11:02:41;;;;;;;11.27;2.58;;;;;;;20.88;57.18;101459.72;4891844;29;20074;-76
2021/06/08 11:05:08;;;;;;;8.20;2.35;;;;;;;20.94;56.92;101458.13;4897884;29;20045;-75
2021/06/08 11:07:55;;;;;;;10.75;3.75;;;;;;;20.99;57.28;101456.94;4896640;29;20041;-75
2021/06/08 11:10:28;;;;;;;6.93;2.35;;;;;;;21.00;56.87;101450.91;4891655;29;20552;-75
2021/06/08 11:13:07;;;;;;;1.40;0.50;;;;;;;21.07;55.99;101445.34;4898423;29;20565;-75
2021/06/08 11:15:35;;;;;;;0.28;0.28;;;;;;;21.13;55.89;101435.25;4889586;29;20068;-75
2021/06/08 11:18:34;;;;;;;1.75;0.22;;;;;;;21.19;53.54;101444.94;4895385;29;20061;-75
2021/06/08 11:21:04;;;;;;;2.28;0.30;;;;;;;21.27;54.76;101442.13;4833483;29;20060;-74
2021/06/08 11:23:44;;;;;;;0.93;0.30;;;;;;;21.45;54.42;101442.94;4897747;29;20460;-75
2021/06/08 11:26:18;;;;;;;0.55;0.43;;;;;;;21.60;53.59;101448.19;4895986;29;20046;-75
2021/06/08 11:28:51;;;;;;;0.95;0.20;;;;;;;21.66;53.04;101445.72;4882839;29;20044;-75
2021/06/08 11:31:20;;;;;;;6.53;1.75;;;;;;;21.65;53.77;101444.97;4895746;29;20064;-75
2021/06/08 11:33:48;;;;;;;0.85;0.20;;;;;;;21.72;53.48;101450.56;4883340;29;20445;-75
2021/06/08 11:36:18;;;;;;;0.85;0.30;;;;;;;21.80;53.60;101449.34;4896533;29;20160;-75
2021/06/08 11:38:47;;;;;;;0.20;0.20;;;;;;;21.84;53.43;101450.16;4882164;29;20109;-75